sensor_id;sensor_type;location;lat;lon;timestamp;pressure;altitude;pressure_sealevel;temperature
10869;BMP180;62667;48.698;8.762;2023-07-22T00:02:27;95997.00;;;13.00
10869;BMP180;62667;48.698;8.762;2023-07-22T00:04:55;96005.00;;;13.00
10869;BMP180;62667;48.698;8.762;2023-07-22T00:07:23;96000.00;;;12.90
10869;BMP180;62667;48.698;8.762;2023-07-22T00:09:51;96001.00;;;12.80
10869;BMP180;62667;48.698;8.762;2023-07-22T00:12:18;95994.00;;;12.70
10869;BMP180;62667;48.698;8.762;2023-07-22T00:14:47;95999.00;;;12.80
10869;BMP180;62667;48.698;8.762;2023-07-22T00:17:14;95992.00;;;12.80
10869;BMP180;62667;48.698;8.762;2023-07-22T00:19:42;95998.00;;;12.70
10869;BMP180;62667;48.698;8.762;2023-07-22T00:22:10;96000.00;;;12.70
10869;BMP180;62667;48.698;8.762;2023-07-22T00:24:38;96004.00;;;12.60
10869;BMP180;62667;48.698;8.762;2023-07-22T00:27:06;95995.00;;;12.70
10869;BMP180;62667;48.698;8.762;2023-07-22T00:29:34;95998.00;;;12.60
10869;BMP180;62667;48.698;8.762;2023-07-22T00:32:05;95990.00;;;12.60
10869;BMP180;62667;48.698;8.762;2023-07-22T00:34:34;95995.00;;;12.50
10869;BMP180;62667;48.698;8.762;2023-07-22T00:37:03;95996.00;;;12.40
10869;BMP180;62667;48.698;8.762;2023-07-22T00:39:30;96000.00;;;12.40
10869;BMP180;62667;48.698;8.762;2023-07-22T00:41:57;95990.00;;;12.40
10869;BMP180;62667;48.698;8.762;2023-07-22T00:44:25;95995.00;;;12.40
10869;BMP180;62667;48.698;8.762;2023-07-22T00:46:53;95985.00;;;12.40
10869;BMP180;62667;48.698;8.762;2023-07-22T00:49:23;95989.00;;;12.30
10869;BMP180;62667;48.698;8.762;2023-07-22T00:51:51;95993.00;;;12.30
10869;BMP180;62667;48.698;8.762;2023-07-22T00:54:18;95995.00;;;12.30
10869;BMP180;62667;48.698;8.762;2023-07-22T00:56:47;95989.00;;;12.30
10869;BMP180;62667;48.698;8.762;2023-07-22T00:59:15;95982.00;;;12.40
10869;BMP180;62667;48.698;8.762;2023-07-22T01:01:43;95978.00;;;12.40
10869;BMP180;62667;48.698;8.762;2023-07-22T01:04:13;95981.00;;;12.40
10869;BMP180;62667;48.698;8.762;2023-07-22T01:06:43;95985.00;;;12.00
10869;BMP180;62667;48.698;8.762;2023-07-22T01:09:11;95980.00;;;12.00
10869;BMP180;62667;48.698;8.762;2023-07-22T01:11:39;95978.00;;;12.10
10869;BMP180;62667;48.698;8.762;2023-07-22T01:14:07;95972.00;;;12.10
10869;BMP180;62667;48.698;8.762;2023-07-22T01:16:34;95976.00;;;12.00
10869;BMP180;62667;48.698;8.762;2023-07-22T01:19:02;95977.00;;;12.20
10869;BMP180;62667;48.698;8.762;2023-07-22T01:21:32;95977.00;;;12.10
10869;BMP180;62667;48.698;8.762;2023-07-22T01:24:01;95980.00;;;12.10
10869;BMP180;62667;48.698;8.762;2023-07-22T01:26:28;95971.00;;;12.10
10869;BMP180;62667;48.698;8.762;2023-07-22T01:29:03;95972.00;;;12.20
10869;BMP180;62667;48.698;8.762;2023-07-22T01:31:31;95973.00;;;12.20
10869;BMP180;62667;48.698;8.762;2023-07-22T01:33:58;95962.00;;;12.20
10869;BMP180;62667;48.698;8.762;2023-07-22T01:36:25;95973.00;;;12.30
10869;BMP180;62667;48.698;8.762;2023-07-22T01:38:53;95975.00;;;12.10
10869;BMP180;62667;48.698;8.762;2023-07-22T01:41:22;95966.00;;;12.10
10869;BMP180;62667;48.698;8.762;2023-07-22T01:43:49;95956.00;;;12.00
10869;BMP180;62667;48.698;8.762;2023-07-22T01:46:17;95962.00;;;11.90
10869;BMP180;62667;48.698;8.762;2023-07-22T01:48:44;95967.00;;;11.80
10869;BMP180;62667;48.698;8.762;2023-07-22T01:51:12;95970.00;;;11.80
10869;BMP180;62667;48.698;8.762;2023-07-22T01:53:39;95964.00;;;11.70
10869;BMP180;62667;48.698;8.762;2023-07-22T01:56:06;95945.00;;;11.70
10869;BMP180;62667;48.698;8.762;2023-07-22T01:58:36;95963.00;;;11.60
10869;BMP180;62667;48.698;8.762;2023-07-22T02:01:03;95945.00;;;11.60
10869;BMP180;62667;48.698;8.762;2023-07-22T02:03:31;95951.00;;;11.60
10869;BMP180;62667;48.698;8.762;2023-07-22T02:06:02;95966.00;;;11.70
10869;BMP180;62667;48.698;8.762;2023-07-22T02:08:30;95962.00;;;11.70
10869;BMP180;62667;48.698;8.762;2023-07-22T02:11:01;95961.00;;;11.70
10869;BMP180;62667;48.698;8.762;2023-07-22T02:13:30;95962.00;;;11.80
10869;BMP180;62667;48.698;8.762;2023-07-22T02:15:59;95964.00;;;11.70
10869;BMP180;62667;48.698;8.762;2023-07-22T02:18:27;95973.00;;;11.70
10869;BMP180;62667;48.698;8.762;2023-07-22T02:20:54;95956.00;;;11.50
10869;BMP180;62667;48.698;8.762;2023-07-22T02:23:22;95973.00;;;11.50
10869;BMP180;62667;48.698;8.762;2023-07-22T02:25:50;95966.00;;;11.50
10869;BMP180;62667;48.698;8.762;2023-07-22T02:28:17;95962.00;;;11.50
10869;BMP180;62667;48.698;8.762;2023-07-22T02:30:47;95975.00;;;11.30
10869;BMP180;62667;48.698;8.762;2023-07-22T02:33:16;95984.00;;;11.30
10869;BMP180;62667;48.698;8.762;2023-07-22T02:35:44;95980.00;;;11.30
10869;BMP180;62667;48.698;8.762;2023-07-22T02:38:12;95987.00;;;11.40
10869;BMP180;62667;48.698;8.762;2023-07-22T02:40:41;95981.00;;;11.40
10869;BMP180;62667;48.698;8.762;2023-07-22T02:43:08;95979.00;;;11.50
10869;BMP180;62667;48.698;8.762;2023-07-22T02:45:36;95970.00;;;11.40
10869;BMP180;62667;48.698;8.762;2023-07-22T02:48:04;95975.00;;;11.40
10869;BMP180;62667;48.698;8.762;2023-07-22T02:50:33;95976.00;;;11.40
10869;BMP180;62667;48.698;8.762;2023-07-22T02:53:00;95973.00;;;11.30
10869;BMP180;62667;48.698;8.762;2023-07-22T02:55:28;95965.00;;;11.30
10869;BMP180;62667;48.698;8.762;2023-07-22T02:57:55;95972.00;;;11.30
10869;BMP180;62667;48.698;8.762;2023-07-22T03:00:23;95962.00;;;11.40
10869;BMP180;62667;48.698;8.762;2023-07-22T03:02:51;95966.00;;;11.30
10869;BMP180;62667;48.698;8.762;2023-07-22T03:05:19;95967.00;;;11.30
10869;BMP180;62667;48.698;8.762;2023-07-22T03:07:48;95956.00;;;11.30
10869;BMP180;62667;48.698;8.762;2023-07-22T03:10:16;95965.00;;;11.30
10869;BMP180;62667;48.698;8.762;2023-07-22T03:12:43;95957.00;;;11.40
10869;BMP180;62667;48.698;8.762;2023-07-22T03:15:11;95956.00;;;11.40
10869;BMP180;62667;48.698;8.762;2023-07-22T03:17:39;95954.00;;;11.30
10869;BMP180;62667;48.698;8.762;2023-07-22T03:20:08;95958.00;;;11.00
10869;BMP180;62667;48.698;8.762;2023-07-22T03:22:40;95955.00;;;11.00
10869;BMP180;62667;48.698;8.762;2023-07-22T03:25:09;95956.00;;;11.10
10869;BMP180;62667;48.698;8.762;2023-07-22T03:27:37;95967.00;;;11.10
10869;BMP180;62667;48.698;8.762;2023-07-22T03:30:06;95963.00;;;11.20
10869;BMP180;62667;48.698;8.762;2023-07-22T03:32:34;95954.00;;;11.20
10869;BMP180;62667;48.698;8.762;2023-07-22T03:35:01;95954.00;;;11.30
10869;BMP180;62667;48.698;8.762;2023-07-22T03:37:29;95960.00;;;11.40
10869;BMP180;62667;48.698;8.762;2023-07-22T03:39:57;95958.00;;;11.30
10869;BMP180;62667;48.698;8.762;2023-07-22T03:42:26;95965.00;;;11.40
10869;BMP180;62667;48.698;8.762;2023-07-22T03:44:54;95960.00;;;11.30
10869;BMP180;62667;48.698;8.762;2023-07-22T03:47:22;95961.00;;;11.20
10869;BMP180;62667;48.698;8.762;2023-07-22T03:49:49;95962.00;;;11.30
10869;BMP180;62667;48.698;8.762;2023-07-22T03:52:17;95967.00;;;11.30
10869;BMP180;62667;48.698;8.762;2023-07-22T03:54:45;95967.00;;;11.20
10869;BMP180;62667;48.698;8.762;2023-07-22T03:57:12;95959.00;;;11.10
10869;BMP180;62667;48.698;8.762;2023-07-22T03:59:41;95966.00;;;11.10
10869;BMP180;62667;48.698;8.762;2023-07-22T04:02:08;95959.00;;;11.00
10869;BMP180;62667;48.698;8.762;2023-07-22T04:04:36;95953.00;;;11.10
10869;BMP180;62667;48.698;8.762;2023-07-22T04:07:03;95952.00;;;11.10
10869;BMP180;62667;48.698;8.762;2023-07-22T04:09:34;95945.00;;;11.10
10869;BMP180;62667;48.698;8.762;2023-07-22T04:12:01;95953.00;;;11.10
10869;BMP180;62667;48.698;8.762;2023-07-22T04:14:30;95950.00;;;11.10
10869;BMP180;62667;48.698;8.762;2023-07-22T04:16:58;95949.00;;;11.10
10869;BMP180;62667;48.698;8.762;2023-07-22T04:19:26;95949.00;;;11.10
10869;BMP180;62667;48.698;8.762;2023-07-22T04:21:53;95951.00;;;11.10
10869;BMP180;62667;48.698;8.762;2023-07-22T04:24:21;95945.00;;;11.20
10869;BMP180;62667;48.698;8.762;2023-07-22T04:26:49;95938.00;;;11.20
10869;BMP180;62667;48.698;8.762;2023-07-22T04:29:16;95943.00;;;11.20
10869;BMP180;62667;48.698;8.762;2023-07-22T04:31:44;95941.00;;;11.30
10869;BMP180;62667;48.698;8.762;2023-07-22T04:34:12;95938.00;;;11.30
10869;BMP180;62667;48.698;8.762;2023-07-22T04:36:40;95948.00;;;11.40
10869;BMP180;62667;48.698;8.762;2023-07-22T04:39:07;95945.00;;;11.30
10869;BMP180;62667;48.698;8.762;2023-07-22T04:41:35;95952.00;;;11.50
10869;BMP180;62667;48.698;8.762;2023-07-22T04:44:03;95953.00;;;11.40
10869;BMP180;62667;48.698;8.762;2023-07-22T04:46:30;95946.00;;;11.40
10869;BMP180;62667;48.698;8.762;2023-07-22T04:48:57;95953.00;;;11.40
10869;BMP180;62667;48.698;8.762;2023-07-22T04:51:26;95952.00;;;11.40
10869;BMP180;62667;48.698;8.762;2023-07-22T04:53:54;95960.00;;;11.40
10869;BMP180;62667;48.698;8.762;2023-07-22T04:56:21;95958.00;;;11.30
10869;BMP180;62667;48.698;8.762;2023-07-22T04:58:48;95962.00;;;11.40
10869;BMP180;62667;48.698;8.762;2023-07-22T05:01:16;95963.00;;;11.50
10869;BMP180;62667;48.698;8.762;2023-07-22T05:03:43;95956.00;;;11.60
10869;BMP180;62667;48.698;8.762;2023-07-22T05:06:12;95964.00;;;11.80
10869;BMP180;62667;48.698;8.762;2023-07-22T05:08:40;95966.00;;;11.80
10869;BMP180;62667;48.698;8.762;2023-07-22T05:11:09;95965.00;;;11.80
10869;BMP180;62667;48.698;8.762;2023-07-22T05:13:36;95958.00;;;11.90
10869;BMP180;62667;48.698;8.762;2023-07-22T05:16:03;95953.00;;;12.00
10869;BMP180;62667;48.698;8.762;2023-07-22T05:18:31;95967.00;;;12.10
10869;BMP180;62667;48.698;8.762;2023-07-22T05:20:58;95967.00;;;12.10
10869;BMP180;62667;48.698;8.762;2023-07-22T05:23:26;95970.00;;;12.20
10869;BMP180;62667;48.698;8.762;2023-07-22T05:25:54;95972.00;;;12.20
10869;BMP180;62667;48.698;8.762;2023-07-22T05:28:22;95961.00;;;12.30
10869;BMP180;62667;48.698;8.762;2023-07-22T05:30:49;95970.00;;;12.40
10869;BMP180;62667;48.698;8.762;2023-07-22T05:33:17;95964.00;;;12.50
10869;BMP180;62667;48.698;8.762;2023-07-22T05:35:44;95972.00;;;12.60
10869;BMP180;62667;48.698;8.762;2023-07-22T05:38:12;95967.00;;;12.70
10869;BMP180;62667;48.698;8.762;2023-07-22T05:40:39;95975.00;;;12.80
10869;BMP180;62667;48.698;8.762;2023-07-22T05:43:08;95979.00;;;12.90
10869;BMP180;62667;48.698;8.762;2023-07-22T05:45:35;95979.00;;;12.90
10869;BMP180;62667;48.698;8.762;2023-07-22T05:48:03;95979.00;;;13.00
10869;BMP180;62667;48.698;8.762;2023-07-22T05:50:31;95983.00;;;13.10
10869;BMP180;62667;48.698;8.762;2023-07-22T05:52:58;95986.00;;;13.20
10869;BMP180;62667;48.698;8.762;2023-07-22T05:55:26;95987.00;;;13.30
10869;BMP180;62667;48.698;8.762;2023-07-22T05:57:53;95978.00;;;13.40
10869;BMP180;62667;48.698;8.762;2023-07-22T06:00:22;95989.00;;;13.60
10869;BMP180;62667;48.698;8.762;2023-07-22T06:02:50;95986.00;;;13.80
10869;BMP180;62667;48.698;8.762;2023-07-22T06:05:17;95994.00;;;13.90
10869;BMP180;62667;48.698;8.762;2023-07-22T06:07:45;95984.00;;;14.10
10869;BMP180;62667;48.698;8.762;2023-07-22T06:10:12;95997.00;;;14.20
10869;BMP180;62667;48.698;8.762;2023-07-22T06:12:40;95994.00;;;14.40
10869;BMP180;62667;48.698;8.762;2023-07-22T06:15:08;95990.00;;;14.60
10869;BMP180;62667;48.698;8.762;2023-07-22T06:17:37;95996.00;;;14.70
10869;BMP180;62667;48.698;8.762;2023-07-22T06:20:05;95997.00;;;14.90
10869;BMP180;62667;48.698;8.762;2023-07-22T06:22:33;95995.00;;;15.00
10869;BMP180;62667;48.698;8.762;2023-07-22T06:25:00;95992.00;;;15.10
10869;BMP180;62667;48.698;8.762;2023-07-22T06:27:28;95989.00;;;15.30
10869;BMP180;62667;48.698;8.762;2023-07-22T06:29:55;95996.00;;;15.40
10869;BMP180;62667;48.698;8.762;2023-07-22T06:32:24;95995.00;;;15.60
10869;BMP180;62667;48.698;8.762;2023-07-22T06:34:53;95997.00;;;15.80
10869;BMP180;62667;48.698;8.762;2023-07-22T06:37:20;95997.00;;;15.90
10869;BMP180;62667;48.698;8.762;2023-07-22T06:39:48;96000.00;;;16.10
10869;BMP180;62667;48.698;8.762;2023-07-22T06:42:15;95998.00;;;16.30
10869;BMP180;62667;48.698;8.762;2023-07-22T06:44:43;95996.00;;;16.40
10869;BMP180;62667;48.698;8.762;2023-07-22T06:47:09;95997.00;;;16.70
10869;BMP180;62667;48.698;8.762;2023-07-22T06:49:37;96002.00;;;16.80
10869;BMP180;62667;48.698;8.762;2023-07-22T06:52:07;95996.00;;;17.20
10869;BMP180;62667;48.698;8.762;2023-07-22T06:54:34;96000.00;;;17.20
10869;BMP180;62667;48.698;8.762;2023-07-22T06:57:02;96002.00;;;17.40
10869;BMP180;62667;48.698;8.762;2023-07-22T06:59:32;96000.00;;;17.40
10869;BMP180;62667;48.698;8.762;2023-07-22T07:01:59;96005.00;;;17.60
10869;BMP180;62667;48.698;8.762;2023-07-22T07:04:27;96007.00;;;17.70
10869;BMP180;62667;48.698;8.762;2023-07-22T07:06:54;96003.00;;;17.70
10869;BMP180;62667;48.698;8.762;2023-07-22T07:09:23;96013.00;;;17.60
10869;BMP180;62667;48.698;8.762;2023-07-22T07:11:51;96004.00;;;17.90
10869;BMP180;62667;48.698;8.762;2023-07-22T07:14:19;95998.00;;;17.80
10869;BMP180;62667;48.698;8.762;2023-07-22T07:16:46;96008.00;;;18.00
10869;BMP180;62667;48.698;8.762;2023-07-22T07:19:13;96005.00;;;18.10
10869;BMP180;62667;48.698;8.762;2023-07-22T07:21:41;96012.00;;;18.20
10869;BMP180;62667;48.698;8.762;2023-07-22T07:24:08;96010.00;;;18.40
10869;BMP180;62667;48.698;8.762;2023-07-22T07:26:37;96022.00;;;18.50
10869;BMP180;62667;48.698;8.762;2023-07-22T07:29:04;96015.00;;;18.50
10869;BMP180;62667;48.698;8.762;2023-07-22T07:31:32;96026.00;;;18.40
10869;BMP180;62667;48.698;8.762;2023-07-22T07:33:59;96029.00;;;18.40
10869;BMP180;62667;48.698;8.762;2023-07-22T07:36:27;96027.00;;;18.30
10869;BMP180;62667;48.698;8.762;2023-07-22T07:38:54;96029.00;;;18.40
10869;BMP180;62667;48.698;8.762;2023-07-22T07:41:22;96020.00;;;18.40
10869;BMP180;62667;48.698;8.762;2023-07-22T07:43:51;96024.00;;;18.60
10869;BMP180;62667;48.698;8.762;2023-07-22T07:46:20;96016.00;;;18.80
10869;BMP180;62667;48.698;8.762;2023-07-22T07:48:50;96024.00;;;18.80
10869;BMP180;62667;48.698;8.762;2023-07-22T07:51:18;96032.00;;;19.00
10869;BMP180;62667;48.698;8.762;2023-07-22T07:53:47;96024.00;;;19.00
10869;BMP180;62667;48.698;8.762;2023-07-22T07:56:15;96032.00;;;19.30
10869;BMP180;62667;48.698;8.762;2023-07-22T07:58:44;96023.00;;;19.30
10869;BMP180;62667;48.698;8.762;2023-07-22T08:01:13;96012.00;;;19.60
10869;BMP180;62667;48.698;8.762;2023-07-22T08:03:42;96011.00;;;19.80
10869;BMP180;62667;48.698;8.762;2023-07-22T08:06:10;96014.00;;;19.70
10869;BMP180;62667;48.698;8.762;2023-07-22T08:08:37;96020.00;;;20.00
10869;BMP180;62667;48.698;8.762;2023-07-22T08:11:06;96008.00;;;20.20
10869;BMP180;62667;48.698;8.762;2023-07-22T08:13:35;96029.00;;;20.00
10869;BMP180;62667;48.698;8.762;2023-07-22T08:16:03;96020.00;;;20.00
10869;BMP180;62667;48.698;8.762;2023-07-22T08:18:32;96030.00;;;19.70
10869;BMP180;62667;48.698;8.762;2023-07-22T08:21:01;96032.00;;;19.70
10869;BMP180;62667;48.698;8.762;2023-07-22T08:23:29;96035.00;;;19.60
10869;BMP180;62667;48.698;8.762;2023-07-22T08:25:57;96035.00;;;19.40
10869;BMP180;62667;48.698;8.762;2023-07-22T08:28:25;96034.00;;;19.50
10869;BMP180;62667;48.698;8.762;2023-07-22T08:30:54;96031.00;;;19.50
10869;BMP180;62667;48.698;8.762;2023-07-22T08:33:23;96036.00;;;19.50
10869;BMP180;62667;48.698;8.762;2023-07-22T08:35:53;96033.00;;;19.80
10869;BMP180;62667;48.698;8.762;2023-07-22T08:38:21;96037.00;;;19.60
10869;BMP180;62667;48.698;8.762;2023-07-22T08:40:50;96041.00;;;19.60
10869;BMP180;62667;48.698;8.762;2023-07-22T08:43:20;96032.00;;;19.40
10869;BMP180;62667;48.698;8.762;2023-07-22T08:45:49;96035.00;;;19.50
10869;BMP180;62667;48.698;8.762;2023-07-22T08:48:19;96040.00;;;19.50
10869;BMP180;62667;48.698;8.762;2023-07-22T08:50:52;96031.00;;;19.50
10869;BMP180;62667;48.698;8.762;2023-07-22T08:53:21;96032.00;;;19.60
10869;BMP180;62667;48.698;8.762;2023-07-22T08:55:50;96031.00;;;19.80
10869;BMP180;62667;48.698;8.762;2023-07-22T08:58:18;96023.00;;;20.00
10869;BMP180;62667;48.698;8.762;2023-07-22T09:00:45;96029.00;;;20.40
10869;BMP180;62667;48.698;8.762;2023-07-22T09:03:14;96025.00;;;20.20
10869;BMP180;62667;48.698;8.762;2023-07-22T09:05:44;96012.00;;;20.20
10869;BMP180;62667;48.698;8.762;2023-07-22T09:08:14;96012.00;;;20.80
10869;BMP180;62667;48.698;8.762;2023-07-22T09:10:43;96022.00;;;20.90
10869;BMP180;62667;48.698;8.762;2023-07-22T09:13:12;96021.00;;;21.10
10869;BMP180;62667;48.698;8.762;2023-07-22T09:15:40;96013.00;;;21.20
10869;BMP180;62667;48.698;8.762;2023-07-22T09:18:08;96025.00;;;21.40
10869;BMP180;62667;48.698;8.762;2023-07-22T09:20:36;96015.00;;;21.20
10869;BMP180;62667;48.698;8.762;2023-07-22T09:23:03;96013.00;;;21.20
10869;BMP180;62667;48.698;8.762;2023-07-22T09:25:33;96022.00;;;21.00
10869;BMP180;62667;48.698;8.762;2023-07-22T09:28:01;96015.00;;;21.20
10869;BMP180;62667;48.698;8.762;2023-07-22T09:30:30;96031.00;;;21.00
10869;BMP180;62667;48.698;8.762;2023-07-22T09:32:59;96033.00;;;20.80
10869;BMP180;62667;48.698;8.762;2023-07-22T09:35:28;96028.00;;;20.80
10869;BMP180;62667;48.698;8.762;2023-07-22T09:37:56;96025.00;;;20.50
10869;BMP180;62667;48.698;8.762;2023-07-22T09:40:25;96012.00;;;20.90
10869;BMP180;62667;48.698;8.762;2023-07-22T09:42:56;96018.00;;;21.20
10869;BMP180;62667;48.698;8.762;2023-07-22T09:45:25;96027.00;;;21.10
10869;BMP180;62667;48.698;8.762;2023-07-22T09:47:54;96024.00;;;20.90
10869;BMP180;62667;48.698;8.762;2023-07-22T09:50:24;96028.00;;;21.00
10869;BMP180;62667;48.698;8.762;2023-07-22T09:52:53;96025.00;;;20.60
10869;BMP180;62667;48.698;8.762;2023-07-22T09:55:22;96025.00;;;20.70
10869;BMP180;62667;48.698;8.762;2023-07-22T09:57:55;96013.00;;;20.90
10869;BMP180;62667;48.698;8.762;2023-07-22T10:00:25;96021.00;;;21.10
10869;BMP180;62667;48.698;8.762;2023-07-22T10:02:57;96027.00;;;21.00
10869;BMP180;62667;48.698;8.762;2023-07-22T10:05:26;96013.00;;;20.60
10869;BMP180;62667;48.698;8.762;2023-07-22T10:07:57;96008.00;;;20.50
10869;BMP180;62667;48.698;8.762;2023-07-22T10:10:27;96016.00;;;21.10
10869;BMP180;62667;48.698;8.762;2023-07-22T10:12:59;96008.00;;;21.00
10869;BMP180;62667;48.698;8.762;2023-07-22T10:15:29;95992.00;;;21.30
10869;BMP180;62667;48.698;8.762;2023-07-22T10:17:57;96014.00;;;21.20
10869;BMP180;62667;48.698;8.762;2023-07-22T10:20:25;96022.00;;;21.40
10869;BMP180;62667;48.698;8.762;2023-07-22T10:22:52;96018.00;;;21.50
10869;BMP180;62667;48.698;8.762;2023-07-22T10:25:21;96023.00;;;21.30
10869;BMP180;62667;48.698;8.762;2023-07-22T10:27:49;96019.00;;;21.00
10869;BMP180;62667;48.698;8.762;2023-07-22T10:30:19;96019.00;;;20.90
10869;BMP180;62667;48.698;8.762;2023-07-22T10:32:48;96012.00;;;20.90
10869;BMP180;62667;48.698;8.762;2023-07-22T10:35:21;96014.00;;;21.00
10869;BMP180;62667;48.698;8.762;2023-07-22T10:37:49;96017.00;;;20.90
10869;BMP180;62667;48.698;8.762;2023-07-22T10:40:25;96002.00;;;20.90
10869;BMP180;62667;48.698;8.762;2023-07-22T10:42:54;96002.00;;;21.50
10869;BMP180;62667;48.698;8.762;2023-07-22T10:45:27;96002.00;;;21.30
10869;BMP180;62667;48.698;8.762;2023-07-22T10:48:03;96015.00;;;21.30
10869;BMP180;62667;48.698;8.762;2023-07-22T10:50:43;96000.00;;;21.60
10869;BMP180;62667;48.698;8.762;2023-07-22T10:53:14;95991.00;;;22.00
10869;BMP180;62667;48.698;8.762;2023-07-22T10:56:05;96002.00;;;21.80
10869;BMP180;62667;48.698;8.762;2023-07-22T10:58:54;96001.00;;;21.90
10869;BMP180;62667;48.698;8.762;2023-07-22T11:01:25;95975.00;;;22.00
10869;BMP180;62667;48.698;8.762;2023-07-22T11:04:08;95975.00;;;22.10
10869;BMP180;62667;48.698;8.762;2023-07-22T11:06:38;96010.00;;;22.60
10869;BMP180;62667;48.698;8.762;2023-07-22T11:09:06;95992.00;;;21.90
10869;BMP180;62667;48.698;8.762;2023-07-22T11:11:38;95977.00;;;22.20
10869;BMP180;62667;48.698;8.762;2023-07-22T11:14:15;95981.00;;;22.30
10869;BMP180;62667;48.698;8.762;2023-07-22T11:16:45;95972.00;;;22.50
10869;BMP180;62667;48.698;8.762;2023-07-22T11:19:14;95963.00;;;22.70
10869;BMP180;62667;48.698;8.762;2023-07-22T11:21:41;95949.00;;;22.60
10869;BMP180;62667;48.698;8.762;2023-07-22T11:24:09;95970.00;;;22.80
10869;BMP180;62667;48.698;8.762;2023-07-22T11:26:37;95942.00;;;22.70
10869;BMP180;62667;48.698;8.762;2023-07-22T11:29:06;95941.00;;;22.90
10869;BMP180;62667;48.698;8.762;2023-07-22T11:31:35;95926.00;;;23.50
10869;BMP180;62667;48.698;8.762;2023-07-22T11:34:05;95931.00;;;22.90
10869;BMP180;62667;48.698;8.762;2023-07-22T11:36:32;95945.00;;;22.70
10869;BMP180;62667;48.698;8.762;2023-07-22T11:39:02;95933.00;;;23.10
10869;BMP180;62667;48.698;8.762;2023-07-22T11:41:31;95928.00;;;23.00
10869;BMP180;62667;48.698;8.762;2023-07-22T11:43:59;95928.00;;;23.20
10869;BMP180;62667;48.698;8.762;2023-07-22T11:46:27;95921.00;;;23.00
10869;BMP180;62667;48.698;8.762;2023-07-22T11:48:55;95917.00;;;23.30
10869;BMP180;62667;48.698;8.762;2023-07-22T11:51:25;95909.00;;;23.20
10869;BMP180;62667;48.698;8.762;2023-07-22T11:53:54;95938.00;;;23.80
10869;BMP180;62667;48.698;8.762;2023-07-22T11:56:23;95935.00;;;23.60
10869;BMP180;62667;48.698;8.762;2023-07-22T11:58:51;95917.00;;;23.00
10869;BMP180;62667;48.698;8.762;2023-07-22T12:01:19;95916.00;;;23.40
10869;BMP180;62667;48.698;8.762;2023-07-22T12:03:47;95915.00;;;24.00
10869;BMP180;62667;48.698;8.762;2023-07-22T12:06:16;95906.00;;;24.40
10869;BMP180;62667;48.698;8.762;2023-07-22T12:08:47;95947.00;;;24.00
10869;BMP180;62667;48.698;8.762;2023-07-22T12:11:18;95934.00;;;24.00
10869;BMP180;62667;48.698;8.762;2023-07-22T12:13:45;95908.00;;;23.10
10869;BMP180;62667;48.698;8.762;2023-07-22T12:16:22;95922.00;;;23.40
10869;BMP180;62667;48.698;8.762;2023-07-22T12:18:54;95927.00;;;23.00
10869;BMP180;62667;48.698;8.762;2023-07-22T12:21:22;95930.00;;;23.30
10869;BMP180;62667;48.698;8.762;2023-07-22T12:23:52;95924.00;;;23.40
10869;BMP180;62667;48.698;8.762;2023-07-22T12:26:20;95887.00;;;24.10
10869;BMP180;62667;48.698;8.762;2023-07-22T12:28:47;95920.00;;;23.80
10869;BMP180;62667;48.698;8.762;2023-07-22T12:31:15;95894.00;;;23.80
10869;BMP180;62667;48.698;8.762;2023-07-22T12:33:42;95904.00;;;24.30
10869;BMP180;62667;48.698;8.762;2023-07-22T12:36:10;95896.00;;;24.20
10869;BMP180;62667;48.698;8.762;2023-07-22T12:38:37;95901.00;;;23.60
10869;BMP180;62667;48.698;8.762;2023-07-22T12:41:06;95917.00;;;23.90
10869;BMP180;62667;48.698;8.762;2023-07-22T12:43:34;95905.00;;;24.30
10869;BMP180;62667;48.698;8.762;2023-07-22T12:46:01;95904.00;;;24.60
10869;BMP180;62667;48.698;8.762;2023-07-22T12:48:28;95893.00;;;24.40
10869;BMP180;62667;48.698;8.762;2023-07-22T12:50:56;95891.00;;;24.50
10869;BMP180;62667;48.698;8.762;2023-07-22T12:53:24;95891.00;;;25.10
10869;BMP180;62667;48.698;8.762;2023-07-22T12:55:52;95896.00;;;26.10
10869;BMP180;62667;48.698;8.762;2023-07-22T12:58:21;95916.00;;;25.10
10869;BMP180;62667;48.698;8.762;2023-07-22T13:00:48;95933.00;;;25.00
10869;BMP180;62667;48.698;8.762;2023-07-22T13:03:16;95885.00;;;24.60
10869;BMP180;62667;48.698;8.762;2023-07-22T13:05:43;95900.00;;;24.30
10869;BMP180;62667;48.698;8.762;2023-07-22T13:08:11;95898.00;;;24.20
10869;BMP180;62667;48.698;8.762;2023-07-22T13:10:38;95914.00;;;24.40
10869;BMP180;62667;48.698;8.762;2023-07-22T13:13:10;95909.00;;;24.00
10869;BMP180;62667;48.698;8.762;2023-07-22T13:15:39;95903.00;;;24.00
10869;BMP180;62667;48.698;8.762;2023-07-22T13:18:06;95911.00;;;23.80
10869;BMP180;62667;48.698;8.762;2023-07-22T13:20:33;95892.00;;;24.60
10869;BMP180;62667;48.698;8.762;2023-07-22T13:23:01;95896.00;;;24.90
10869;BMP180;62667;48.698;8.762;2023-07-22T13:25:28;95899.00;;;25.60
10869;BMP180;62667;48.698;8.762;2023-07-22T13:27:56;95892.00;;;26.20
10869;BMP180;62667;48.698;8.762;2023-07-22T13:30:24;95900.00;;;25.00
10869;BMP180;62667;48.698;8.762;2023-07-22T13:32:53;95937.00;;;25.30
10869;BMP180;62667;48.698;8.762;2023-07-22T13:35:22;95913.00;;;23.90
10869;BMP180;62667;48.698;8.762;2023-07-22T13:37:49;95892.00;;;24.40
10869;BMP180;62667;48.698;8.762;2023-07-22T13:40:17;95887.00;;;24.90
10869;BMP180;62667;48.698;8.762;2023-07-22T13:42:44;95894.00;;;25.40
10869;BMP180;62667;48.698;8.762;2023-07-22T13:45:12;95899.00;;;25.00
10869;BMP180;62667;48.698;8.762;2023-07-22T13:47:39;95908.00;;;24.60
10869;BMP180;62667;48.698;8.762;2023-07-22T13:50:09;95926.00;;;24.30
10869;BMP180;62667;48.698;8.762;2023-07-22T13:52:36;95910.00;;;24.20
10869;BMP180;62667;48.698;8.762;2023-07-22T13:55:05;95905.00;;;24.10
10869;BMP180;62667;48.698;8.762;2023-07-22T13:57:32;95894.00;;;24.60
10869;BMP180;62667;48.698;8.762;2023-07-22T14:00:00;95895.00;;;24.50
10869;BMP180;62667;48.698;8.762;2023-07-22T14:02:27;95900.00;;;24.40
10869;BMP180;62667;48.698;8.762;2023-07-22T14:04:55;95889.00;;;24.50
10869;BMP180;62667;48.698;8.762;2023-07-22T14:07:24;95890.00;;;24.40
10869;BMP180;62667;48.698;8.762;2023-07-22T14:09:51;95887.00;;;24.80
10869;BMP180;62667;48.698;8.762;2023-07-22T14:12:19;95877.00;;;25.40
10869;BMP180;62667;48.698;8.762;2023-07-22T14:14:46;95862.00;;;24.70
10869;BMP180;62667;48.698;8.762;2023-07-22T14:17:14;95888.00;;;24.50